Hit Tracker is now ESPN Home Run Tracker! Hit Tracker founder Greg Rybarczyk is now collaborating with the ESPN Stats & Information Group to continue tracking all MLB home runs, and helping baseball fans know "How Far It Really Went!™" Please credit any information on this site to ESPN Stats & Information Group. For more information and analysis on home runs, please contact founder Greg Rybarczyk. E-Mail ESPN Home Run Tracker
Main Page | Ballparks | Park Overlays | Glossary | Highlight Homers | Feedback | Bio | 3 Types of HR's | AAA Home Run Derby Last Updated: May 26, 2017, 10:56 pm PST
If you want to know "How Far It Really Went!", then you've come to the right place! Welcome to the ESPN Home Run Tracker, where you can find accurate, transparently verifiable distances for every home run hit in MLB games. Please also check out the ESPN MLB Scoreboard throughout the 2017 season! Contact us at grybar@hittrackeronline.com.
Season:
Ballpark detail for Citizens Bank Park
Ballpark # of Home Runs HR per game Avg.
True
Distance
Avg.
Speed
Off
Bat
Avg.
Std.
Dist.
Citizens Bank Park 62 2.95 393.4 102.3 393.6

Scatter Plot of Home Runs Citizens Bank Park
 Overlay Ballpark:
Without range rings   With range rings

2017 Season Home Runs for Citizens Bank Park
Click headers to sort
Date ^ Video Path Hitter Hitter
Team
Pitcher Pitcher
Team
INN Ballpark Type/
Luck
True
Dist.
Speed
Off
Bat
Elev.
Angle
Horiz.
Angle
Apex Impact Due To: Std.
Dist.
#
Parks
Wind Temp. Alt.
05/26/17 Video View Duvall, Adam CIN Nola, Aaron PHI 1 Citizens Ban... ND 410 105.8 30.1 112.1 102 0 0 0 409 30
05/26/17 Video View Schebler, Scott CIN Nola, Aaron PHI 2 Citizens Ban... JE 421 103.7 25.4 91.1 87 0 0 0 421 26
05/25/17 Video View Story, Trevor COL Velasquez, Vince PHI 4 Citizens Ban... ND 423 108.4 23.6 79.1 79 0 -1 0 424 29
05/25/17 Video View Joseph, Tommy PHI Anderson, Tyler COL 7 Citizens Ban... PL 428 106.5 23.3 88.1 86 0 0 0 429 28
05/24/17 Video View Gonzalez, Carlos COL Hellickson, Jeremy PHI 3 Citizens Ban... ND 399 110.2 23.8 62.4 65 0 -1 0 399 30
05/24/17 Video View Saunders, Michael PHI Dunn, Mike COL 8 Citizens Ban... JE 404 103.0 24.7 81.0 77 1 -1 0 403 20
05/23/17 Video View Blackmon, Charlie COL Eflin, Zach PHI 3 Citizens Ban... ND 429 109.5 24.6 76.2 82 0 0 0 430 30
05/23/17 Video View Blackmon, Charlie COL Eflin, Zach PHI 4 Citizens Ban... ND 409 105.0 26.3 76.0 88 -2 0 0 412 29
05/23/17 Video View Parra, Gerardo COL Eflin, Zach PHI 6 Citizens Ban... PL 399 103.4 28.0 76.2 98 -8 -1 0 408 30
05/23/17 Video View Knapp, Andrew PHI Qualls, Chad COL 9 Citizens Ban... JE 379 99.9 25.6 76.2 72 0 0 0 380 7
05/22/17 Video View Arenado, Nolan COL Garcia, Luis PHI 9 Citizens Ban... PL 405 102.5 28.7 101.1 101 -3 0 0 408 30
05/10/17 Video View Cano, Robinson SEA Eflin, Zach PHI 3 Citizens Ban... JE 374 101.0 24.3 105.7 66 0 0 0 374 6
05/10/17 Video View Altherr, Aaron PHI Gallardo, Yovani SEA 3 Citizens Ban... PL 355 102.1 34.8 114.7 128 -25 -1 0 380 30
05/10/17 Video View Valencia, Danny SEA Thompson, Jake PHI 8 Citizens Ban... PL 402 102.6 32.3 104.1 118 0 0 0 402 30
05/10/17 Video View Altherr, Aaron PHI Overton, Dillon SEA 9 Citizens Ban... ND 409 107.5 25.9 110.2 81 -3 0 0 411 30
05/10/17 Video View Joseph, Tommy PHI Overton, Dillon SEA 9 Citizens Ban... JE 395 100.6 26.6 95.7 95 -7 -7 0 402 14
05/09/17 Video View Saunders, Michael PHI Miranda, Ariel SEA 1 Citizens Ban... JE 377 96.3 30.0 77.4 87 5 -1 0 373 4
05/09/17 Video View Joseph, Tommy PHI Miranda, Ariel SEA 1 Citizens Ban... JE 382 106.5 21.7 106.8 57 0 0 -1 382 12
05/09/17 Video View Cano, Robinson SEA Eickhoff, Jerad PHI 3 Citizens Ban... PL 376 98.5 33.4 73.1 111 1 -2 0 377 25
05/09/17 Video View Gamel, Ben SEA Eickhoff, Jerad PHI 4 Citizens Ban... ND 397 106.9 26.1 63.9 75 0 0 0 398 30
05/09/17 Video View Altherr, Aaron PHI Machi, Jean SEA 4 Citizens Ban... JE 362 103.8 24.0 119.4 58 0 0 0 362 17
05/07/17 Video View Werth, Jayson WSH Hellickson, Jeremy PHI 1 Citizens Ban... PL 401 101.0 26.9 80.3 81 3 -1 0 398 20
05/07/17 Video View Werth, Jayson WSH Hellickson, Jeremy PHI 5 Citizens Ban... ND 402 109.7 23.8 114.6 67 1 0 0 401 30
05/07/17 Video View Altherr, Aaron PHI Albers, Matt WSH 8 Citizens Ban... PL 408 103.3 25.2 94.8 93 -5 -1 0 415 25
05/06/17 Video View Zimmerman, Ryan WSH Velasquez, Vince PHI 4 Citizens Ban... PL 415 104.3 28.2 101.6 100 0 -2 0 418 30
05/06/17 Video View Rendon, Anthony WSH Velasquez, Vince PHI 6 Citizens Ban... PL 378 103.6 26.0 117.0 70 1 -1 0 378 29
05/06/17 Video View Rupp, Cameron PHI Perez, Oliver WSH 7 Citizens Ban... PL 385 98.1 30.9 75.8 96 5 -2 0 382 27
05/05/17 Video View Strasburg, Stephen WSH Pivetta, Nick PHI 2 Citizens Ban... JE/L 401 99.1 28.6 97.5 88 6 0 0 394 6
05/05/17 Video View Rendon, Anthony WSH Pivetta, Nick PHI 5 Citizens Ban... PL 391 98.9 32.0 79.1 108 3 0 0 389 21
05/05/17 Video View Zimmerman, Ryan WSH Pivetta, Nick PHI 5 Citizens Ban... PL 422 105.4 25.4 81.6 85 1 0 0 421 28
04/26/17 Video View Prado, Martin MIA Velasquez, Vince PHI 3 Citizens Ban... PL 365 96.6 31.3 108.6 95 -1 -1 0 368 17
04/26/17 Video View Franco, Maikel PHI Chen, Wei-Yin MIA 3 Citizens Ban... JE 407 103.7 24.0 97.2 76 0 0 0 407 20
04/26/17 Video View Galvis, Freddy PHI Garcia, Jarlin MIA 6 Citizens Ban... JE 355 95.4 34.9 109.0 110 0 -1 0 357 7
04/26/17 Video View Saunders, Michael PHI McGowan, Dustin MIA 8 Citizens Ban... ND 421 109.3 26.4 68.5 85 0 -1 0 421 30
04/23/17 Video View Kemp, Matt ATL Eflin, Zach PHI 7 Citizens Ban... JE 362 96.4 28.4 71.5 78 -1 0 0 362 10
04/23/17 Video View Altherr, Aaron PHI Vizcaino, Arodys ATL 8 Citizens Ban... PL 416 102.6 28.9 84.8 105 0 -1 0 417 25
04/23/17 Video View Hernandez, Cesar PHI Vizcaino, Arodys ATL 8 Citizens Ban... JE 357 96.5 27.4 70.3 72 0 -1 0 358 1
04/23/17 Video View Herrera, Odubel PHI Krol, Ian ATL 8 Citizens Ban... JE 400 101.5 25.8 98.1 83 -1 -1 0 401 18
04/22/17 Video View Phillips, Brandon ATL Ramos, Edubray PHI 9 Citizens Ban... PL 393 104.3 25.1 107.5 73 0 -1 0 395 30
04/21/17 Video View Freeman, Freddie ATL Hellickson, Jeremy PHI 6 Citizens Ban... ND 422 106.5 29.6 78.1 116 -5 -2 0 429 30
04/21/17 Video View Garcia, Adonis ATL Neris, Hector PHI 9 Citizens Ban... ND 394 105.3 29.9 120.2 91 0 -1 0 396 30
04/12/17 Video View Franco, Maikel PHI Robles, Hansel NYM 6 Citizens Ban... JE 430 108.5 22.1 95.4 73 2 0 0 429 28
04/12/17 Video View Conforto, Michael NYM Velasquez, Vince PHI 3 Citizens Ban... PL 418 104.4 25.9 97.8 90 -1 0 0 418 30
04/11/17 Video View Duda, Lucas NYM Gomez, Jeanmar PHI 9 Citizens Ban... JE 375 99.7 25.9 73.3 69 2 0 0 374 6
04/11/17 Video View d'Arnaud, Travis NYM Rodriguez, Joely PHI 8 Citizens Ban... JE 358 96.1 29.4 65.1 74 4 0 0 354 11
04/11/17 Video View Duda, Lucas NYM Morgan, Adam PHI 6 Citizens Ban... PL 450 109.1 24.3 87.6 90 0 1 1 449 30
04/11/17 Video View Cespedes, Yoenis NYM Morgan, Adam PHI 5 Citizens Ban... PL 366 100.4 37.3 113.7 130 3 2 0 362 25
04/11/17 Video View Cabrera, Asdrubal NYM Morgan, Adam PHI 4 Citizens Ban... JE 398 100.7 26.6 99.6 81 1 1 0 396 16
04/11/17 Video View Cespedes, Yoenis NYM Morgan, Adam PHI 4 Citizens Ban... ND 398 106.9 28.7 124.8 82 1 1 0 396 30
04/11/17 Video View Franco, Maikel PHI Harvey, Matt NYM 2 Citizens Ban... JE 351 94.0 32.9 111.3 94 0 1 0 351 2
04/11/17 Video View Cespedes, Yoenis NYM Buchholz, Clay PHI 1 Citizens Ban... JE 417 103.9 24.1 87.7 79 0 0 0 416 22
04/10/17 Video View Stassi, Brock PHI Reed, Addison NYM 9 Citizens Ban... JE 410 103.5 24.4 83.7 76 1 0 0 410 17
04/10/17 Video View Bruce, Jay NYM Rodriguez, Joely PHI 8 Citizens Ban... ND 397 102.2 32.8 67.8 108 8 0 0 389 30
04/10/17 Video View Bruce, Jay NYM Eickhoff, Jerad PHI 4 Citizens Ban... PL 404 100.2 31.8 79.7 108 8 0 0 396 25
04/09/17 Video View Zimmerman, Ryan WSH Gomez, Jeanmar PHI 9 Citizens Ban... PL 378 97.5 36.2 108.7 117 17 -1 0 361 12
04/08/17 Video View Rupp, Cameron PHI Kelley, Shawn WSH 8 Citizens Ban... PL 371 98.5 34.4 73.5 118 0 -3 0 375 25
04/08/17 Video View Blanco, Andres PHI Perez, Oliver WSH 7 Citizens Ban... PL 369 99.8 35.2 113.6 118 3 -4 0 370 29
04/07/17 Video View Galvis, Freddy PHI Treinen, Blake WSH 9 Citizens Ban... PL 363 96.8 37.4 65.3 116 20 -7 0 348 21
04/07/17 Video View Altherr, Aaron PHI Solis, Sammy WSH 7 Citizens Ban... JE 357 96.7 28.4 67.3 74 1 -2 0 358 16
04/07/17 Video View Werth, Jayson WSH Rodriguez, Joely PHI 5 Citizens Ban... JE 371 98.9 26.5 107.3 77 1 -1 0 372 7
04/07/17 Video View Murphy, Daniel WSH Velasquez, Vince PHI 3 Citizens Ban... ND 426 106.8 25.3 81.0 89 0 -2 0 429 29
04/07/17 Video View Harper, Bryce WSH Velasquez, Vince PHI 1 Citizens Ban... JE 353 95.5 29.6 68.8 82 -2 -2 0 357 15


About HitTracker | Contact Us
© 2006-2017 HitTrackerOnline